Time;durP1;ratioP1;P1;durP2;ratioP2;P2;SDS_P1;SDS_P2;PMS_P1;PMS_P2;Temp;Humidity;BMP_temperature;BMP_pressure;BME280_temperature;BME280_humidity;BME280_pressure;Samples;Min_cycle;Max_cycle;Signal;HPM_P1;HPM_P2
2023/05/27 00:01:10;;;;;;;9.90;2.70;;;;;;;;;;5026523;28;20567;-68
2023/05/27 00:03:35;;;;;;;9.25;2.80;;;;;;;;;;5030034;28;20118;-68
2023/05/27 00:06:01;;;;;;;10.30;2.80;;;;;;;;;;5029203;28;20076;-68
2023/05/27 00:08:26;;;;;;;10.93;2.67;;;;;;;;;;5025310;28;20017;-69
2023/05/27 00:10:51;;;;;;;11.98;2.70;;;;;;;;;;5025097;28;20025;-68
2023/05/27 00:13:16;;;;;;;10.30;2.63;;;;;;;;;;5026004;28;20091;-67
2023/05/27 00:15:41;;;;;;;13.33;3.17;;;;;;;;;;5018558;28;20021;-68
2023/05/27 00:18:06;;;;;;;11.63;2.80;;;;;;;;;;5024314;28;20059;-67
2023/05/27 00:20:32;;;;;;;11.15;2.88;;;;;;;;;;5024637;28;20024;-68
2023/05/27 00:22:59;;;;;;;11.10;2.70;;;;;;;;;;5028536;28;20033;-68
2023/05/27 00:25:24;;;;;;;10.57;2.70;;;;;;;;;;5025273;28;20075;-67
2023/05/27 00:27:49;;;;;;;11.15;2.60;;;;;;;;;;5015355;28;20481;-67
2023/05/27 00:30:15;;;;;;;13.63;2.83;;;;;;;;;;5025757;28;20052;-67
2023/05/27 00:32:40;;;;;;;12.95;2.88;;;;;;;;;;5029544;28;20496;-67
2023/05/27 00:35:06;;;;;;;9.13;2.60;;;;;;;;;;5026421;28;20075;-69
2023/05/27 00:37:31;;;;;;;10.73;2.70;;;;;;;;;;5028464;28;20056;-67
2023/05/27 00:39:56;;;;;;;8.50;2.47;;;;;;;;;;5021872;28;20079;-67
2023/05/27 00:42:21;;;;;;;13.25;2.65;;;;;;;;;;5011435;28;20367;-68
2023/05/27 00:44:46;;;;;;;12.65;3.53;;;;;;;;;;5014577;28;20021;-68
2023/05/27 00:47:12;;;;;;;15.27;3.30;;;;;;;;;;5026594;28;20076;-67
2023/05/27 00:49:37;;;;;;;7.95;2.45;;;;;;;;;;5029140;28;20029;-68
2023/05/27 00:52:03;;;;;;;11.30;2.97;;;;;;;;;;5023894;28;20086;-68
2023/05/27 00:54:29;;;;;;;11.53;2.50;;;;;;;;;;5018936;28;20028;-68
2023/05/27 00:56:54;;;;;;;11.80;2.72;;;;;;;;;;5027544;28;20454;-67
2023/05/27 00:59:20;;;;;;;14.10;3.30;;;;;;;;;;5026967;28;20104;-67
2023/05/27 01:01:45;;;;;;;10.53;2.40;;;;;;;;;;5027562;28;20052;-67
2023/05/27 01:04:12;;;;;;;15.60;3.20;;;;;;;;;;5022203;28;20453;-67
2023/05/27 01:06:48;;;;;;;12.82;2.67;;;;;;;;;;5029949;28;20022;-68
2023/05/27 01:09:16;;;;;;;11.60;3.25;;;;;;;;;;5019860;28;20037;-68
2023/05/27 01:11:43;;;;;;;12.90;2.95;;;;;;;;;;5029436;28;20389;-68
2023/05/27 01:14:10;;;;;;;10.18;2.78;;;;;;;;;;5028628;28;20108;-67
2023/05/27 01:16:39;;;;;;;10.48;2.63;;;;;;;;;;5025956;28;20121;-68
2023/05/27 01:19:05;;;;;;;10.88;3.25;;;;;;;;;;5020571;28;20044;-68
2023/05/27 01:21:30;;;;;;;11.65;3.00;;;;;;;;;;5027818;28;20026;-68
2023/05/27 01:24:02;;;;;;;13.07;3.53;;;;;;;;;;5025925;28;20025;-69
2023/05/27 01:26:27;;;;;;;11.30;2.70;;;;;;;;;;5014902;28;20022;-69
2023/05/27 01:28:52;;;;;;;13.80;2.88;;;;;;;;;;5018064;28;20024;-69
2023/05/27 01:31:17;;;;;;;11.53;3.00;;;;;;;;;;5021699;28;20030;-68
2023/05/27 01:33:46;;;;;;;12.50;3.15;;;;;;;;;;5021919;28;20112;-68
2023/05/27 01:36:14;;;;;;;10.15;2.55;;;;;;;;;;5017691;28;20026;-67
2023/05/27 01:38:40;;;;;;;12.95;3.35;;;;;;;;;;5027628;28;20508;-68
2023/05/27 01:41:06;;;;;;;11.50;3.60;;;;;;;;;;5027844;28;20407;-68
2023/05/27 01:43:32;;;;;;;9.38;2.72;;;;;;;;;;5029634;28;20045;-68
2023/05/27 01:45:57;;;;;;;10.13;2.90;;;;;;;;;;5031853;28;20022;-68
2023/05/27 01:48:22;;;;;;;11.77;3.20;;;;;;;;;;5021107;28;20026;-68
2023/05/27 01:50:47;;;;;;;12.43;3.13;;;;;;;;;;5018695;28;20025;-68
2023/05/27 01:53:12;;;;;;;9.60;2.78;;;;;;;;;;5030854;28;20065;-68
2023/05/27 01:55:38;;;;;;;10.33;2.87;;;;;;;;;;5019514;28;20397;-68
2023/05/27 01:58:03;;;;;;;19.35;3.28;;;;;;;;;;5026593;28;20025;-68
2023/05/27 02:00:28;;;;;;;10.05;2.88;;;;;;;;;;5028874;28;20034;-68
2023/05/27 02:02:53;;;;;;;12.93;3.60;;;;;;;;;;5021960;28;20040;-68
2023/05/27 02:05:18;;;;;;;9.60;3.07;;;;;;;;;;5024376;28;20022;-68
2023/05/27 02:07:43;;;;;;;11.68;3.22;;;;;;;;;;5017194;28;20060;-67
2023/05/27 02:10:09;;;;;;;12.70;3.13;;;;;;;;;;5036956;28;20013;-68
2023/05/27 02:12:35;;;;;;;10.68;2.88;;;;;;;;;;5042909;28;20158;-68
2023/05/27 02:15:00;;;;;;;9.23;2.70;;;;;;;;;;5025381;28;20495;-69
2023/05/27 02:17:27;;;;;;;11.45;2.80;;;;;;;;;;5020139;28;20025;-67
2023/05/27 02:19:52;;;;;;;;;;;;;;;;;;5021460;28;20014;-68
2023/05/27 02:22:17;;;;;;;12.00;3.00;;;;;;;;;;5020902;28;19913;-68
2023/05/27 02:24:42;;;;;;;9.40;2.88;;;;;;;;;;5036152;28;20029;-68
2023/05/27 02:27:07;;;;;;;12.45;3.08;;;;;;;;;;5031130;28;20099;-68
2023/05/27 02:29:33;;;;;;;11.47;3.13;;;;;;;;;;5022701;28;20068;-68
2023/05/27 02:31:58;;;;;;;13.13;2.80;;;;;;;;;;5026888;28;20056;-70
2023/05/27 02:34:23;;;;;;;11.63;3.28;;;;;;;;;;5019334;28;20123;-69
2023/05/27 02:36:48;;;;;;;10.20;3.10;;;;;;;;;;5033211;28;20033;-71
2023/05/27 02:39:13;;;;;;;12.17;3.37;;;;;;;;;;5021554;28;20018;-69
2023/05/27 02:41:39;;;;;;;13.27;3.03;;;;;;;;;;5030118;28;20069;-69
2023/05/27 02:44:05;;;;;;;11.57;3.03;;;;;;;;;;5028398;28;20052;-70
2023/05/27 02:46:30;;;;;;;12.45;3.30;;;;;;;;;;5024587;28;20063;-69
2023/05/27 02:48:55;;;;;;;8.77;2.55;;;;;;;;;;5030557;28;20099;-69
2023/05/27 02:51:21;;;;;;;10.00;2.90;;;;;;;;;;5033721;28;20072;-67
2023/05/27 02:53:46;;;;;;;10.00;2.88;;;;;;;;;;5025067;28;20021;-69
2023/05/27 02:56:11;;;;;;;11.68;3.15;;;;;;;;;;5020793;28;20037;-68
2023/05/27 02:58:36;;;;;;;12.23;2.80;;;;;;;;;;5031185;28;20477;-68
2023/05/27 03:01:01;;;;;;;13.38;3.42;;;;;;;;;;5015361;28;20049;-68
2023/05/27 03:03:27;;;;;;;14.13;3.00;;;;;;;;;;5027010;28;20119;-69
2023/05/27 03:05:52;;;;;;;12.13;3.00;;;;;;;;;;5039205;28;20036;-68
2023/05/27 03:08:17;;;;;;;13.80;2.93;;;;;;;;;;5026434;28;20113;-70
2023/05/27 03:10:42;;;;;;;9.90;2.97;;;;;;;;;;5023904;28;20025;-68
2023/05/27 03:13:07;;;;;;;13.25;2.83;;;;;;;;;;5028839;28;20018;-69
2023/05/27 03:15:32;;;;;;;10.40;2.80;;;;;;;;;;5025125;28;20030;-70
2023/05/27 03:17:58;;;;;;;8.43;2.78;;;;;;;;;;5021037;28;20021;-68
2023/05/27 03:20:23;;;;;;;13.27;3.17;;;;;;;;;;5013881;28;20057;-70
2023/05/27 03:22:48;;;;;;;14.07;3.40;;;;;;;;;;5022546;28;21016;-70
2023/05/27 03:25:14;;;;;;;9.70;2.53;;;;;;;;;;5018047;28;20550;-69
2023/05/27 03:27:40;;;;;;;9.77;3.03;;;;;;;;;;5026366;28;20036;-68
2023/05/27 03:30:05;;;;;;;10.18;2.60;;;;;;;;;;5018236;28;20075;-68
2023/05/27 03:32:31;;;;;;;9.57;2.80;;;;;;;;;;5018474;28;20610;-69
2023/05/27 03:34:56;;;;;;;10.53;3.30;;;;;;;;;;5014481;28;20485;-68
2023/05/27 03:37:21;;;;;;;10.93;3.10;;;;;;;;;;5030069;28;20033;-68
2023/05/27 03:39:46;;;;;;;9.53;3.00;;;;;;;;;;5021594;28;20581;-68
2023/05/27 03:42:11;;;;;;;9.97;2.73;;;;;;;;;;5026133;28;20063;-68
2023/05/27 03:44:36;;;;;;;10.03;2.63;;;;;;;;;;5029475;28;20037;-69
2023/05/27 03:47:02;;;;;;;10.70;2.88;;;;;;;;;;5021203;28;20057;-67
2023/05/27 03:49:27;;;;;;;12.20;3.10;;;;;;;;;;5031901;28;20029;-68
2023/05/27 03:51:52;;;;;;;10.13;3.17;;;;;;;;;;5031130;28;20169;-67
2023/05/27 03:54:18;;;;;;;10.25;3.13;;;;;;;;;;5022689;28;20035;-68
2023/05/27 03:56:43;;;;;;;9.40;2.80;;;;;;;;;;5020732;28;20473;-69
2023/05/27 03:59:08;;;;;;;12.52;3.60;;;;;;;;;;5018234;28;20009;-70
2023/05/27 04:01:33;;;;;;;7.55;3.03;;;;;;;;;;5014321;28;20087;-67
2023/05/27 04:03:58;;;;;;;12.73;3.60;;;;;;;;;;5015898;28;20394;-69
2023/05/27 04:06:23;;;;;;;12.57;3.43;;;;;;;;;;5029680;28;20031;-69
2023/05/27 04:08:48;;;;;;;8.53;3.00;;;;;;;;;;5027642;28;20049;-69
2023/05/27 04:11:14;;;;;;;13.10;3.17;;;;;;;;;;5027403;28;20026;-69
2023/05/27 04:13:39;;;;;;;13.85;3.50;;;;;;;;;;5028105;28;20030;-69
2023/05/27 04:16:05;;;;;;;11.02;3.28;;;;;;;;;;5022567;28;20026;-67
2023/05/27 04:18:30;;;;;;;12.90;3.17;;;;;;;;;;5023400;28;20017;-68
2023/05/27 04:20:58;;;;;;;13.15;3.30;;;;;;;;;;5021752;28;20490;-68
2023/05/27 04:23:23;;;;;;;12.02;3.55;;;;;;;;;;5020705;28;20044;-67
2023/05/27 04:25:49;;;;;;;12.13;3.23;;;;;;;;;;5016275;28;20407;-67
2023/05/27 04:28:15;;;;;;;12.40;3.53;;;;;;;;;;5017247;28;20455;-66
2023/05/27 04:30:40;;;;;;;10.65;3.53;;;;;;;;;;5017661;28;20252;-69
2023/05/27 04:33:07;;;;;;;11.02;3.03;;;;;;;;;;5025175;28;20037;-68
2023/05/27 04:35:32;;;;;;;;;;;;;;;;;;5023225;28;20390;-67
2023/05/27 04:37:58;;;;;;;11.60;3.40;;;;;;;;;;5031937;28;20339;-69
2023/05/27 04:40:24;;;;;;;12.30;3.63;;;;;;;;;;5028131;28;20041;-69
2023/05/27 04:42:49;;;;;;;13.77;3.88;;;;;;;;;;5028169;28;20393;-68
2023/05/27 04:45:14;;;;;;;14.85;4.65;;;;;;;;;;5017986;28;21805;-68
2023/05/27 04:47:40;;;;;;;12.77;3.23;;;;;;;;;;5004623;28;20026;-68
2023/05/27 04:50:06;;;;;;;13.45;3.35;;;;;;;;;;5016344;28;20366;-68
2023/05/27 04:52:38;;;;;;;15.45;4.38;;;;;;;;;;5014528;28;20021;-67
2023/05/27 04:55:08;;;;;;;12.48;3.17;;;;;;;;;;5009519;28;20018;-68
2023/05/27 04:57:33;;;;;;;12.75;3.60;;;;;;;;;;5023341;28;20034;-68
2023/05/27 05:02:47;;;;;;;13.77;3.85;;;;;;;;;;5034486;28;20034;-67
2023/05/27 05:05:12;;;;;;;14.07;4.10;;;;;;;;;;5027352;28;20013;-68
2023/05/27 05:07:39;;;;;;;11.60;3.57;;;;;;;;;;5017405;28;20026;-67
2023/05/27 05:10:06;;;;;;;10.05;3.28;;;;;;;;;;5036303;28;20026;-67
2023/05/27 05:12:31;;;;;;;11.82;3.38;;;;;;;;;;5032374;28;20117;-69
2023/05/27 05:14:57;;;;;;;14.77;4.13;;;;;;;;;;5022252;28;20033;-67
2023/05/27 05:17:24;;;;;;;12.38;3.70;;;;;;;;;;5023857;28;20362;-67
2023/05/27 05:19:49;;;;;;;11.05;3.65;;;;;;;;;;5014707;28;20726;-68
2023/05/27 05:22:18;;;;;;;10.70;3.50;;;;;;;;;;5016173;28;20093;-67
2023/05/27 05:24:43;;;;;;;13.48;4.05;;;;;;;;;;5016355;28;20022;-67
2023/05/27 05:27:08;;;;;;;10.97;3.43;;;;;;;;;;5014173;28;20119;-67
2023/05/27 05:29:33;;;;;;;14.07;3.90;;;;;;;;;;5013499;28;20029;-67
2023/05/27 05:31:59;;;;;;;10.77;3.50;;;;;;;;;;5020542;28;20018;-67
2023/05/27 05:34:24;;;;;;;13.13;4.33;;;;;;;;;;5029645;28;20025;-67
2023/05/27 05:36:49;;;;;;;12.93;3.57;;;;;;;;;;5029819;28;20421;-67
2023/05/27 05:39:15;;;;;;;15.67;4.27;;;;;;;;;;5027574;28;20013;-67
2023/05/27 05:41:40;;;;;;;13.77;4.03;;;;;;;;;;5020171;28;20455;-68
2023/05/27 05:44:06;;;;;;;11.67;3.63;;;;;;;;;;5016784;28;20083;-67
2023/05/27 05:46:31;;;;;;;10.45;3.42;;;;;;;;;;5019085;28;20559;-66
2023/05/27 05:48:56;;;;;;;12.82;3.40;;;;;;;;;;5025465;28;20677;-68
2023/05/27 05:51:21;;;;;;;11.23;2.97;;;;;;;;;;5017884;28;20388;-67
2023/05/27 05:53:47;;;;;;;11.60;4.00;;;;;;;;;;5018227;28;20360;-67
2023/05/27 05:56:12;;;;;;;11.30;3.40;;;;;;;;;;5022767;28;20500;-68
2023/05/27 05:58:37;;;;;;;12.77;3.37;;;;;;;;;;5020492;28;20029;-68
2023/05/27 06:01:04;;;;;;;10.87;3.43;;;;;;;;;;5021079;28;20388;-68
2023/05/27 06:03:29;;;;;;;11.77;3.33;;;;;;;;;;5024190;28;20068;-68
2023/05/27 06:05:54;;;;;;;10.88;3.47;;;;;;;;;;5033990;28;20095;-68
2023/05/27 06:08:19;;;;;;;13.20;2.97;;;;;;;;;;5026677;28;20020;-68
2023/05/27 06:10:45;;;;;;;13.03;3.27;;;;;;;;;;5034219;28;20021;-67
2023/05/27 06:13:11;;;;;;;14.27;3.57;;;;;;;;;;5025311;28;20493;-68
2023/05/27 06:15:36;;;;;;;13.48;3.40;;;;;;;;;;5028358;28;20026;-67
2023/05/27 06:18:01;;;;;;;12.60;3.33;;;;;;;;;;5027976;28;20584;-68
2023/05/27 06:20:26;;;;;;;10.35;2.70;;;;;;;;;;5022193;28;20036;-66
2023/05/27 06:22:51;;;;;;;10.02;2.70;;;;;;;;;;5012437;28;20091;-66
2023/05/27 06:25:16;;;;;;;12.30;3.20;;;;;;;;;;5019783;28;20041;-66
2023/05/27 06:27:42;;;;;;;10.88;2.70;;;;;;;;;;5025594;28;20477;-65
2023/05/27 06:30:07;;;;;;;9.70;2.80;;;;;;;;;;5027351;28;20041;-66
2023/05/27 06:32:32;;;;;;;15.43;3.45;;;;;;;;;;5026242;28;20026;-66
2023/05/27 06:34:57;;;;;;;10.70;2.80;;;;;;;;;;5017782;28;20511;-66
2023/05/27 06:37:22;;;;;;;12.10;2.63;;;;;;;;;;5015511;28;20048;-67
2023/05/27 06:39:48;;;;;;;11.20;3.33;;;;;;;;;;5013528;28;20033;-68
2023/05/27 06:42:13;;;;;;;12.43;2.83;;;;;;;;;;5021139;28;20083;-66
2023/05/27 06:44:38;;;;;;;17.15;2.95;;;;;;;;;;5009115;28;20773;-67
2023/05/27 06:47:04;;;;;;;11.53;2.90;;;;;;;;;;5012874;28;20042;-66
2023/05/27 06:49:29;;;;;;;13.60;2.78;;;;;;;;;;5013637;28;20072;-67
2023/05/27 06:51:54;;;;;;;11.63;2.92;;;;;;;;;;5025519;28;20022;-67
2023/05/27 06:54:19;;;;;;;14.37;2.70;;;;;;;;;;5026448;28;20025;-67
2023/05/27 06:56:45;;;;;;;10.65;2.80;;;;;;;;;;5018951;28;20018;-66
2023/05/27 06:59:10;;;;;;;10.73;2.50;;;;;;;;;;5020194;28;20433;-67
2023/05/27 07:01:35;;;;;;;13.30;2.88;;;;;;;;;;5018133;28;20038;-66
2023/05/27 07:04:00;;;;;;;15.75;2.42;;;;;;;;;;5023798;28;20034;-67
2023/05/27 07:06:25;;;;;;;14.32;3.22;;;;;;;;;;5026207;28;20017;-68
2023/05/27 07:08:50;;;;;;;11.13;2.93;;;;;;;;;;5014136;28;20079;-68
2023/05/27 07:11:16;;;;;;;12.90;2.70;;;;;;;;;;5032435;28;20025;-67
2023/05/27 07:13:41;;;;;;;10.00;2.50;;;;;;;;;;5032634;28;20108;-66
2023/05/27 07:16:06;;;;;;;13.30;2.90;;;;;;;;;;5021439;28;20540;-67
2023/05/27 07:18:31;;;;;;;11.60;2.58;;;;;;;;;;5018404;28;20113;-65
2023/05/27 07:20:56;;;;;;;11.10;2.78;;;;;;;;;;5020366;28;20017;-67
2023/05/27 07:23:22;;;;;;;10.47;2.50;;;;;;;;;;5015112;28;20061;-64
2023/05/27 07:25:47;;;;;;;12.63;2.80;;;;;;;;;;5015275;28;20037;-65
2023/05/27 07:28:12;;;;;;;9.73;2.33;;;;;;;;;;5015244;28;20022;-59
2023/05/27 07:30:37;;;;;;;10.45;2.40;;;;;;;;;;5027659;28;20044;-61
2023/05/27 07:33:02;;;;;;;10.50;2.33;;;;;;;;;;5010644;28;21566;-61
2023/05/27 07:35:27;;;;;;;11.57;2.70;;;;;;;;;;5017621;28;20037;-60
2023/05/27 07:37:53;;;;;;;12.10;2.90;;;;;;;;;;5009493;28;20453;-63
2023/05/27 07:40:18;;;;;;;11.23;2.45;;;;;;;;;;5011401;28;20101;-60
2023/05/27 07:42:43;;;;;;;10.27;2.43;;;;;;;;;;5018317;28;20072;-60
2023/05/27 07:45:09;;;;;;;10.53;2.30;;;;;;;;;;5014167;28;20021;-58
2023/05/27 07:47:34;;;;;;;11.75;2.40;;;;;;;;;;5016142;28;20540;-60
2023/05/27 07:49:59;;;;;;;10.77;2.40;;;;;;;;;;5017710;28;20474;-60
2023/05/27 07:52:24;;;;;;;14.20;2.50;;;;;;;;;;5021722;28;20022;-60
2023/05/27 07:54:49;;;;;;;10.65;2.40;;;;;;;;;;5020464;28;20029;-60
2023/05/27 07:57:16;;;;;;;12.10;2.77;;;;;;;;;;5021966;28;20021;-60
2023/05/27 07:59:42;;;;;;;11.77;2.50;;;;;;;;;;5018683;28;20037;-59
2023/05/27 08:02:07;;;;;;;8.70;2.28;;;;;;;;;;5021651;28;20025;-60
2023/05/27 08:04:32;;;;;;;9.63;2.00;;;;;;;;;;5019263;28;20025;-59
2023/05/27 08:06:58;;;;;;;6.53;1.90;;;;;;;;;;5027201;28;20052;-59
2023/05/27 08:09:24;;;;;;;8.73;2.00;;;;;;;;;;5012424;28;20018;-60
2023/05/27 08:11:49;;;;;;;13.48;1.90;;;;;;;;;;5019023;28;20727;-61
2023/05/27 08:14:15;;;;;;;12.38;2.45;;;;;;;;;;5014646;28;20079;-60
2023/05/27 08:16:41;;;;;;;11.52;2.50;;;;;;;;;;5024315;28;20597;-61
2023/05/27 08:19:06;;;;;;;10.65;2.00;;;;;;;;;;5024868;28;20116;-59
2023/05/27 08:21:32;;;;;;;10.97;2.90;;;;;;;;;;5020875;28;20058;-60
2023/05/27 08:23:57;;;;;;;10.13;2.10;;;;;;;;;;5011952;28;20064;-61
2023/05/27 08:26:22;;;;;;;9.70;2.10;;;;;;;;;;5019521;28;20056;-60
2023/05/27 08:28:48;;;;;;;10.82;2.20;;;;;;;;;;5013513;28;20507;-60
2023/05/27 08:31:13;;;;;;;11.43;2.35;;;;;;;;;;5018537;28;20363;-61
2023/05/27 08:33:38;;;;;;;9.77;2.00;;;;;;;;;;5010436;28;20470;-59
2023/05/27 08:36:04;;;;;;;11.13;2.20;;;;;;;;;;5019381;28;20032;-61
2023/05/27 08:38:30;;;;;;;10.45;2.47;;;;;;;;;;5013679;28;20452;-59
2023/05/27 08:40:55;;;;;;;12.57;2.17;;;;;;;;;;5027737;28;20022;-61
2023/05/27 08:43:22;;;;;;;7.53;2.10;;;;;;;;;;5012556;28;20502;-60
2023/05/27 08:45:48;;;;;;;10.93;1.90;;;;;;;;;;5019532;28;20049;-61
2023/05/27 08:48:14;;;;;;;8.73;2.40;;;;;;;;;;5017250;28;20489;-61
2023/05/27 08:50:39;;;;;;;;;;;;;;;;;;5012102;28;20033;-60
2023/05/27 08:53:05;;;;;;;13.95;2.40;;;;;;;;;;5010173;28;19919;-61
2023/05/27 08:55:31;;;;;;;10.77;2.35;;;;;;;;;;5015600;28;20087;-61
2023/05/27 08:57:57;;;;;;;10.40;2.38;;;;;;;;;;5019218;28;20032;-60
2023/05/27 09:00:23;;;;;;;9.40;2.08;;;;;;;;;;5010469;28;20025;-61
2023/05/27 09:02:48;;;;;;;9.70;2.20;;;;;;;;;;5014313;28;20496;-59
2023/05/27 09:05:14;;;;;;;8.52;1.98;;;;;;;;;;5013128;28;20026;-60
2023/05/27 09:07:40;;;;;;;10.38;2.30;;;;;;;;;;5018219;28;20026;-58
2023/05/27 09:10:08;;;;;;;9.68;2.13;;;;;;;;;;5018332;28;20029;-62
2023/05/27 09:12:33;;;;;;;8.85;2.35;;;;;;;;;;5010815;28;20026;-60
2023/05/27 09:14:58;;;;;;;8.63;2.30;;;;;;;;;;5012290;28;20555;-60
2023/05/27 09:17:24;;;;;;;9.07;2.07;;;;;;;;;;5019194;28;20022;-62
2023/05/27 09:19:52;;;;;;;8.55;2.08;;;;;;;;;;5010907;28;20026;-62
2023/05/27 09:22:19;;;;;;;8.63;2.22;;;;;;;;;;5021257;28;20087;-62
2023/05/27 09:24:44;;;;;;;9.10;2.20;;;;;;;;;;5024981;28;20088;-61
2023/05/27 09:27:10;;;;;;;9.98;2.10;;;;;;;;;;5025388;28;20061;-59
2023/05/27 09:29:37;;;;;;;8.77;2.20;;;;;;;;;;5025420;28;20030;-60
2023/05/27 09:32:02;;;;;;;9.60;2.22;;;;;;;;;;5023171;28;20021;-60
2023/05/27 09:34:29;;;;;;;10.17;2.33;;;;;;;;;;5019137;28;20559;-60
2023/05/27 09:36:54;;;;;;;8.25;2.20;;;;;;;;;;5016253;28;20038;-60
2023/05/27 09:39:21;;;;;;;9.05;2.50;;;;;;;;;;5019970;28;20111;-61
2023/05/27 09:41:53;;;;;;;8.98;1.90;;;;;;;;;;5014843;28;20459;-61
2023/05/27 09:44:18;;;;;;;9.15;2.17;;;;;;;;;;5015109;28;20021;-61
2023/05/27 09:46:44;;;;;;;10.43;2.33;;;;;;;;;;5016260;28;20410;-62
2023/05/27 09:49:10;;;;;;;7.75;2.10;;;;;;;;;;5009774;28;20021;-61
2023/05/27 09:51:35;;;;;;;6.95;2.15;;;;;;;;;;5016748;28;20010;-61
2023/05/27 09:54:01;;;;;;;11.05;2.10;;;;;;;;;;5010646;28;20101;-62
2023/05/27 09:56:27;;;;;;;10.25;2.20;;;;;;;;;;5024909;28;20025;-61
2023/05/27 09:58:55;;;;;;;7.45;2.10;;;;;;;;;;5009645;28;20017;-60
2023/05/27 10:01:20;;;;;;;10.15;2.58;;;;;;;;;;5011614;28;20021;-61
2023/05/27 10:03:45;;;;;;;11.77;2.70;;;;;;;;;;5016349;28;20022;-60
2023/05/27 10:06:12;;;;;;;10.85;2.35;;;;;;;;;;5020822;28;20029;-60
2023/05/27 10:08:38;;;;;;;9.85;2.20;;;;;;;;;;5024770;28;20552;-61
2023/05/27 10:11:03;;;;;;;8.90;2.07;;;;;;;;;;5018518;28;20097;-61
2023/05/27 10:13:28;;;;;;;10.93;2.70;;;;;;;;;;5012043;28;20050;-59
2023/05/27 10:15:54;;;;;;;6.97;2.08;;;;;;;;;;5023383;28;20022;-60
2023/05/27 10:18:23;;;;;;;7.97;2.47;;;;;;;;;;5021117;28;20477;-59
2023/05/27 10:20:49;;;;;;;9.63;2.67;;;;;;;;;;5013856;28;20030;-61
2023/05/27 10:23:15;;;;;;;9.48;2.20;;;;;;;;;;5020252;28;20024;-61
2023/05/27 10:25:44;;;;;;;10.65;2.40;;;;;;;;;;5018029;28;20517;-62
2023/05/27 10:28:10;;;;;;;13.07;2.70;;;;;;;;;;5025864;28;20522;-61
2023/05/27 10:30:42;;;;;;;10.35;2.72;;;;;;;;;;5019418;28;20116;-61
2023/05/27 10:33:08;;;;;;;9.75;2.70;;;;;;;;;;5020311;28;20021;-60
2023/05/27 10:35:38;;;;;;;8.83;2.17;;;;;;;;;;5013451;28;20048;-59
2023/05/27 10:38:13;;;;;;;9.77;2.50;;;;;;;;;;5012361;28;20022;-61
2023/05/27 10:40:38;;;;;;;8.48;2.45;;;;;;;;;;5012921;28;20379;-61
2023/05/27 10:43:03;;;;;;;7.53;2.10;;;;;;;;;;5012423;28;20040;-60
2023/05/27 10:45:33;;;;;;;13.50;2.38;;;;;;;;;;5026142;28;20026;-61
2023/05/27 10:47:58;;;;;;;9.85;2.55;;;;;;;;;;5025944;28;20017;-61
2023/05/27 10:50:28;;;;;;;9.68;2.13;;;;;;;;;;5020027;28;20083;-60
2023/05/27 10:52:54;;;;;;;10.63;2.72;;;;;;;;;;5011844;28;20030;-61
2023/05/27 10:55:20;;;;;;;7.85;2.10;;;;;;;;;;5015470;28;20061;-60
2023/05/27 10:57:46;;;;;;;9.75;2.42;;;;;;;;;;5011705;28;20056;-61
2023/05/27 11:00:15;;;;;;;9.07;2.20;;;;;;;;;;5011853;28;20061;-60
2023/05/27 11:02:40;;;;;;;7.88;2.33;;;;;;;;;;5023338;28;20025;-60
2023/05/27 11:05:08;;;;;;;7.63;2.40;;;;;;;;;;5015614;28;20072;-61
2023/05/27 11:07:35;;;;;;;8.60;2.38;;;;;;;;;;5011917;28;20104;-61
2023/05/27 11:10:01;;;;;;;9.38;2.28;;;;;;;;;;5017168;28;20084;-61
2023/05/27 11:12:27;;;;;;;9.27;2.58;;;;;;;;;;5016015;28;20014;-60
2023/05/27 11:14:53;;;;;;;9.23;2.40;;;;;;;;;;5012262;28;20493;-61
2023/05/27 11:17:19;;;;;;;8.27;2.13;;;;;;;;;;5017960;28;20049;-60
2023/05/27 11:19:45;;;;;;;9.05;2.45;;;;;;;;;;5011193;28;20026;-59
2023/05/27 11:22:11;;;;;;;10.15;2.22;;;;;;;;;;5020882;28;20014;-60
2023/05/27 11:24:36;;;;;;;9.32;2.25;;;;;;;;;;5020279;28;20032;-60
2023/05/27 11:27:07;;;;;;;9.35;2.42;;;;;;;;;;5021922;28;20018;-61
2023/05/27 11:29:32;;;;;;;8.05;2.28;;;;;;;;;;5007205;28;20378;-60
2023/05/27 11:31:58;;;;;;;9.23;2.30;;;;;;;;;;5014020;28;20092;-60
2023/05/27 11:34:23;;;;;;;6.67;2.17;;;;;;;;;;5015370;28;20049;-61
2023/05/27 11:36:48;;;;;;;7.73;2.00;;;;;;;;;;5015631;28;20069;-59
2023/05/27 11:39:16;;;;;;;8.00;2.15;;;;;;;;;;5014582;28;20643;-59
2023/05/27 11:41:53;;;;;;;7.72;2.05;;;;;;;;;;5026612;28;20033;-59
2023/05/27 11:44:20;;;;;;;8.93;2.45;;;;;;;;;;5020973;28;20025;-58
2023/05/27 11:46:45;;;;;;;8.00;2.20;;;;;;;;;;5010985;28;20022;-61
2023/05/27 11:49:12;;;;;;;7.10;2.40;;;;;;;;;;5009020;28;20029;-60
2023/05/27 11:51:39;;;;;;;8.50;2.40;;;;;;;;;;5021036;28;20032;-59
2023/05/27 11:54:04;;;;;;;7.97;2.08;;;;;;;;;;5023862;28;20056;-59
2023/05/27 11:56:29;;;;;;;7.53;2.20;;;;;;;;;;5017614;28;20057;-59
2023/05/27 11:58:55;;;;;;;7.63;2.30;;;;;;;;;;5022030;28;20018;-60
2023/05/27 12:01:20;;;;;;;6.78;1.88;;;;;;;;;;5019104;28;20101;-59
2023/05/27 12:03:45;;;;;;;8.00;2.10;;;;;;;;;;5025530;28;20045;-61
2023/05/27 12:06:11;;;;;;;8.73;2.37;;;;;;;;;;5012557;28;20813;-60
2023/05/27 12:08:36;;;;;;;8.37;2.20;;;;;;;;;;5026607;28;20486;-62
2023/05/27 12:11:01;;;;;;;9.43;2.72;;;;;;;;;;5022810;28;20033;-59
2023/05/27 12:13:28;;;;;;;6.47;2.20;;;;;;;;;;5018569;28;20516;-59
2023/05/27 12:15:53;;;;;;;7.57;1.90;;;;;;;;;;5020404;28;20018;-58
2023/05/27 12:18:19;;;;;;;6.65;2.00;;;;;;;;;;5015649;28;20040;-62
2023/05/27 12:20:44;;;;;;;8.77;2.35;;;;;;;;;;5016839;28;20041;-60
2023/05/27 12:23:09;;;;;;;9.15;1.85;;;;;;;;;;5031020;28;20361;-61
2023/05/27 12:25:35;;;;;;;8.60;2.10;;;;;;;;;;5024077;28;20367;-60
2023/05/27 12:28:00;;;;;;;7.90;1.90;;;;;;;;;;5019185;28;20030;-62
2023/05/27 12:30:25;;;;;;;8.03;2.00;;;;;;;;;;5009659;28;20829;-60
2023/05/27 12:32:50;;;;;;;6.40;1.73;;;;;;;;;;5022173;28;20546;-61
2023/05/27 12:35:15;;;;;;;7.88;2.03;;;;;;;;;;5029877;28;20580;-60
2023/05/27 12:37:40;;;;;;;8.27;2.00;;;;;;;;;;5021544;28;20026;-60
2023/05/27 12:40:09;;;;;;;8.00;2.00;;;;;;;;;;5022433;28;20044;-61
2023/05/27 12:42:34;;;;;;;6.65;2.05;;;;;;;;;;5016744;28;20124;-59
2023/05/27 12:44:59;;;;;;;8.33;1.80;;;;;;;;;;5011480;28;20605;-59
2023/05/27 12:47:24;;;;;;;8.15;1.80;;;;;;;;;;5015870;28;20014;-60
2023/05/27 12:49:50;;;;;;;8.05;2.28;;;;;;;;;;5015375;28;20029;-59
2023/05/27 12:52:15;;;;;;;6.65;2.13;;;;;;;;;;5023168;28;20018;-59
2023/05/27 12:54:40;;;;;;;5.97;1.95;;;;;;;;;;5013952;28;20040;-58
2023/05/27 12:57:05;;;;;;;9.70;2.30;;;;;;;;;;5020083;28;20026;-61
2023/05/27 12:59:31;;;;;;;7.97;1.60;;;;;;;;;;5015660;28;20061;-59
2023/05/27 13:01:56;;;;;;;8.40;2.15;;;;;;;;;;5013464;28;20026;-60
2023/05/27 13:04:21;;;;;;;6.87;1.97;;;;;;;;;;5012790;28;20018;-61
2023/05/27 13:06:46;;;;;;;8.07;2.27;;;;;;;;;;5014115;28;20492;-59
2023/05/27 13:09:13;;;;;;;8.05;2.17;;;;;;;;;;5018045;28;20022;-60
2023/05/27 13:11:39;;;;;;;6.28;1.90;;;;;;;;;;5010783;28;20026;-59
2023/05/27 13:14:05;;;;;;;8.13;2.10;;;;;;;;;;5016930;28;20025;-59
2023/05/27 13:16:30;;;;;;;7.07;2.00;;;;;;;;;;5007707;28;20200;-59
2023/05/27 13:18:55;;;;;;;8.10;2.50;;;;;;;;;;5017032;28;20113;-59
2023/05/27 13:21:21;;;;;;;7.93;2.10;;;;;;;;;;5010994;28;20030;-60
2023/05/27 13:23:46;;;;;;;7.63;2.30;;;;;;;;;;5020425;28;20052;-60
2023/05/27 13:26:11;;;;;;;10.93;2.13;;;;;;;;;;5024563;28;20437;-59
2023/05/27 13:28:36;;;;;;;7.70;2.38;;;;;;;;;;5029958;28;20021;-58
2023/05/27 13:31:03;;;;;;;5.37;1.90;;;;;;;;;;5036064;28;20062;-60
2023/05/27 13:33:28;;;;;;;5.90;1.95;;;;;;;;;;5018758;28;20540;-59
2023/05/27 13:35:53;;;;;;;6.10;1.97;;;;;;;;;;5022065;28;20022;-60
2023/05/27 13:38:18;;;;;;;7.03;2.13;;;;;;;;;;5038842;28;20401;-60
2023/05/27 13:40:44;;;;;;;7.00;2.30;;;;;;;;;;5023921;28;20355;-59
2023/05/27 13:43:09;;;;;;;9.30;2.30;;;;;;;;;;5013073;28;20026;-58
2023/05/27 13:45:34;;;;;;;6.47;2.08;;;;;;;;;;5019047;28;20025;-60
2023/05/27 13:47:59;;;;;;;8.47;2.13;;;;;;;;;;5014366;28;20044;-59
2023/05/27 13:50:24;;;;;;;7.40;2.13;;;;;;;;;;5013596;28;20459;-60
2023/05/27 13:52:50;;;;;;;7.50;2.33;;;;;;;;;;5020892;28;20021;-60
2023/05/27 13:55:15;;;;;;;8.00;2.10;;;;;;;;;;5027217;28;20626;-59
2023/05/27 13:57:40;;;;;;;7.27;2.30;;;;;;;;;;5020394;28;20018;-61
2023/05/27 14:00:06;;;;;;;7.20;2.13;;;;;;;;;;5024005;28;20401;-59
2023/05/27 14:02:31;;;;;;;8.18;2.13;;;;;;;;;;5021728;28;20026;-58
2023/05/27 14:04:56;;;;;;;6.67;2.00;;;;;;;;;;5014001;28;20022;-61
2023/05/27 14:07:23;;;;;;;6.20;1.90;;;;;;;;;;5022969;28;20033;-60
2023/05/27 14:09:48;;;;;;;6.43;2.20;;;;;;;;;;5025405;28;20025;-59
2023/05/27 14:12:13;;;;;;;6.88;2.20;;;;;;;;;;5013831;28;20052;-59
2023/05/27 14:14:38;;;;;;;5.90;1.80;;;;;;;;;;5030028;28;20083;-61
2023/05/27 14:17:03;;;;;;;6.90;2.20;;;;;;;;;;5017253;28;20018;-60
2023/05/27 14:19:28;;;;;;;5.90;2.17;;;;;;;;;;5015566;28;20017;-60
2023/05/27 14:21:54;;;;;;;6.50;2.17;;;;;;;;;;5024925;28;20025;-62
2023/05/27 14:24:19;;;;;;;8.93;2.30;;;;;;;;;;5022684;28;20018;-61
2023/05/27 14:26:44;;;;;;;7.90;2.40;;;;;;;;;;5012968;28;20104;-61
2023/05/27 14:29:10;;;;;;;6.77;2.00;;;;;;;;;;5014099;28;20025;-59